sensor_id;sensor_type;location;lat;lon;timestamp;P1;durP1;ratioP1;P2;durP2;ratioP2
32216;SDS011;18709;51.140;4.088;2022-09-01T00:00:38;3.28;;;1.20;;
32216;SDS011;18709;51.140;4.088;2022-09-01T00:03:06;1.83;;;0.90;;
32216;SDS011;18709;51.140;4.088;2022-09-01T00:05:35;4.57;;;1.10;;
32216;SDS011;18709;51.140;4.088;2022-09-01T00:08:01;2.35;;;1.27;;
32216;SDS011;18709;51.140;4.088;2022-09-01T00:10:28;1.45;;;1.10;;
32216;SDS011;18709;51.140;4.088;2022-09-01T00:12:54;6.20;;;1.15;;
32216;SDS011;18709;51.140;4.088;2022-09-01T00:15:20;3.05;;;0.77;;
32216;SDS011;18709;51.140;4.088;2022-09-01T00:17:46;3.17;;;1.05;;
32216;SDS011;18709;51.140;4.088;2022-09-01T00:20:12;1.88;;;0.90;;
32216;SDS011;18709;51.140;4.088;2022-09-01T00:22:38;4.78;;;1.40;;
32216;SDS011;18709;51.140;4.088;2022-09-01T00:25:04;4.07;;;1.70;;
32216;SDS011;18709;51.140;4.088;2022-09-01T00:27:32;3.28;;;1.42;;
32216;SDS011;18709;51.140;4.088;2022-09-01T00:29:58;5.30;;;1.85;;
32216;SDS011;18709;51.140;4.088;2022-09-01T00:32:25;5.35;;;1.30;;
32216;SDS011;18709;51.140;4.088;2022-09-01T00:34:51;6.57;;;1.48;;
32216;SDS011;18709;51.140;4.088;2022-09-01T00:37:17;4.93;;;1.25;;
32216;SDS011;18709;51.140;4.088;2022-09-01T00:39:43;4.25;;;1.60;;
32216;SDS011;18709;51.140;4.088;2022-09-01T00:42:08;5.53;;;1.42;;
32216;SDS011;18709;51.140;4.088;2022-09-01T00:44:34;3.05;;;1.58;;
32216;SDS011;18709;51.140;4.088;2022-09-01T00:47:02;4.65;;;1.50;;
32216;SDS011;18709;51.140;4.088;2022-09-01T00:49:46;5.90;;;1.48;;
32216;SDS011;18709;51.140;4.088;2022-09-01T00:52:27;3.60;;;1.23;;
32216;SDS011;18709;51.140;4.088;2022-09-01T00:54:57;5.80;;;1.50;;
32216;SDS011;18709;51.140;4.088;2022-09-01T00:57:25;4.25;;;1.60;;
32216;SDS011;18709;51.140;4.088;2022-09-01T00:59:59;6.97;;;1.80;;
32216;SDS011;18709;51.140;4.088;2022-09-01T01:02:30;3.22;;;1.52;;
32216;SDS011;18709;51.140;4.088;2022-09-01T01:04:57;3.45;;;1.55;;
32216;SDS011;18709;51.140;4.088;2022-09-01T01:07:24;2.63;;;1.55;;
32216;SDS011;18709;51.140;4.088;2022-09-01T01:09:51;3.70;;;1.33;;
32216;SDS011;18709;51.140;4.088;2022-09-01T01:12:17;8.88;;;1.70;;
32216;SDS011;18709;51.140;4.088;2022-09-01T01:14:45;3.67;;;1.60;;
32216;SDS011;18709;51.140;4.088;2022-09-01T01:17:14;8.95;;;1.33;;
32216;SDS011;18709;51.140;4.088;2022-09-01T01:19:42;4.25;;;1.73;;
32216;SDS011;18709;51.140;4.088;2022-09-01T01:28:30;2.53;;;1.48;;
32216;SDS011;18709;51.140;4.088;2022-09-01T01:31:03;3.28;;;1.70;;
32216;SDS011;18709;51.140;4.088;2022-09-01T01:33:34;4.10;;;1.58;;
32216;SDS011;18709;51.140;4.088;2022-09-01T01:36:26;13.85;;;1.95;;
32216;SDS011;18709;51.140;4.088;2022-09-01T01:39:11;4.55;;;1.63;;
32216;SDS011;18709;51.140;4.088;2022-09-01T01:41:39;2.75;;;1.65;;
32216;SDS011;18709;51.140;4.088;2022-09-01T01:44:10;3.47;;;1.50;;
32216;SDS011;18709;51.140;4.088;2022-09-01T01:46:39;2.97;;;1.65;;
32216;SDS011;18709;51.140;4.088;2022-09-01T01:49:08;8.73;;;2.07;;
32216;SDS011;18709;51.140;4.088;2022-09-01T01:51:37;9.57;;;1.88;;
32216;SDS011;18709;51.140;4.088;2022-09-01T01:54:03;2.90;;;1.50;;
32216;SDS011;18709;51.140;4.088;2022-09-01T01:56:31;4.18;;;1.70;;
32216;SDS011;18709;51.140;4.088;2022-09-01T01:59:02;6.47;;;1.92;;
32216;SDS011;18709;51.140;4.088;2022-09-01T02:01:28;5.60;;;1.75;;
32216;SDS011;18709;51.140;4.088;2022-09-01T02:03:56;2.50;;;1.35;;
32216;SDS011;18709;51.140;4.088;2022-09-01T02:06:24;3.97;;;1.58;;
32216;SDS011;18709;51.140;4.088;2022-09-01T02:08:52;4.07;;;1.40;;
32216;SDS011;18709;51.140;4.088;2022-09-01T02:11:22;3.08;;;1.55;;
32216;SDS011;18709;51.140;4.088;2022-09-01T02:13:54;5.20;;;1.55;;
32216;SDS011;18709;51.140;4.088;2022-09-01T02:16:21;3.77;;;1.97;;
32216;SDS011;18709;51.140;4.088;2022-09-01T02:18:49;7.05;;;1.90;;
32216;SDS011;18709;51.140;4.088;2022-09-01T02:21:18;4.28;;;1.80;;
32216;SDS011;18709;51.140;4.088;2022-09-01T02:23:50;3.20;;;1.40;;
32216;SDS011;18709;51.140;4.088;2022-09-01T02:26:28;3.53;;;1.38;;
32216;SDS011;18709;51.140;4.088;2022-09-01T02:28:57;4.15;;;1.67;;
32216;SDS011;18709;51.140;4.088;2022-09-01T02:31:29;3.25;;;1.40;;
32216;SDS011;18709;51.140;4.088;2022-09-01T02:33:57;5.05;;;1.30;;
32216;SDS011;18709;51.140;4.088;2022-09-01T02:36:23;7.18;;;1.40;;
32216;SDS011;18709;51.140;4.088;2022-09-01T02:38:49;4.57;;;1.55;;
32216;SDS011;18709;51.140;4.088;2022-09-01T02:41:16;7.68;;;1.70;;
32216;SDS011;18709;51.140;4.088;2022-09-01T02:43:44;4.20;;;1.70;;
32216;SDS011;18709;51.140;4.088;2022-09-01T02:46:11;5.65;;;1.52;;
32216;SDS011;18709;51.140;4.088;2022-09-01T02:48:39;9.13;;;1.60;;
32216;SDS011;18709;51.140;4.088;2022-09-01T02:51:10;4.32;;;1.65;;
32216;SDS011;18709;51.140;4.088;2022-09-01T02:53:39;5.32;;;1.90;;
32216;SDS011;18709;51.140;4.088;2022-09-01T02:56:08;9.50;;;1.75;;
32216;SDS011;18709;51.140;4.088;2022-09-01T02:58:37;7.10;;;1.90;;
32216;SDS011;18709;51.140;4.088;2022-09-01T03:01:13;7.63;;;1.65;;
32216;SDS011;18709;51.140;4.088;2022-09-01T03:03:44;4.47;;;1.77;;
32216;SDS011;18709;51.140;4.088;2022-09-01T03:06:10;4.88;;;1.85;;
32216;SDS011;18709;51.140;4.088;2022-09-01T03:08:37;9.68;;;1.90;;
32216;SDS011;18709;51.140;4.088;2022-09-01T03:11:04;5.95;;;1.70;;
32216;SDS011;18709;51.140;4.088;2022-09-01T03:16:00;5.57;;;1.80;;
32216;SDS011;18709;51.140;4.088;2022-09-01T03:18:27;7.35;;;2.00;;
32216;SDS011;18709;51.140;4.088;2022-09-01T03:20:52;4.35;;;1.85;;
32216;SDS011;18709;51.140;4.088;2022-09-01T03:23:18;10.23;;;1.90;;
32216;SDS011;18709;51.140;4.088;2022-09-01T03:25:45;2.67;;;1.80;;
32216;SDS011;18709;51.140;4.088;2022-09-01T03:28:12;8.60;;;1.70;;
32216;SDS011;18709;51.140;4.088;2022-09-01T03:30:40;4.32;;;1.90;;
32216;SDS011;18709;51.140;4.088;2022-09-01T03:33:14;9.75;;;2.35;;
32216;SDS011;18709;51.140;4.088;2022-09-01T03:35:42;4.43;;;2.13;;
32216;SDS011;18709;51.140;4.088;2022-09-01T03:38:09;5.40;;;2.05;;
32216;SDS011;18709;51.140;4.088;2022-09-01T03:40:36;6.30;;;2.25;;
32216;SDS011;18709;51.140;4.088;2022-09-01T03:43:04;7.10;;;2.25;;
32216;SDS011;18709;51.140;4.088;2022-09-01T03:45:35;9.43;;;2.30;;
32216;SDS011;18709;51.140;4.088;2022-09-01T03:48:02;9.07;;;2.38;;
32216;SDS011;18709;51.140;4.088;2022-09-01T03:50:30;11.65;;;2.35;;
32216;SDS011;18709;51.140;4.088;2022-09-01T03:52:58;3.90;;;2.10;;
32216;SDS011;18709;51.140;4.088;2022-09-01T03:55:32;6.88;;;2.33;;
32216;SDS011;18709;51.140;4.088;2022-09-01T03:58:05;7.13;;;2.20;;
32216;SDS011;18709;51.140;4.088;2022-09-01T04:00:33;8.13;;;2.22;;
32216;SDS011;18709;51.140;4.088;2022-09-01T04:03:05;8.70;;;2.65;;
32216;SDS011;18709;51.140;4.088;2022-09-01T04:05:32;4.75;;;2.17;;
32216;SDS011;18709;51.140;4.088;2022-09-01T04:08:00;6.05;;;2.25;;
32216;SDS011;18709;51.140;4.088;2022-09-01T04:10:34;7.32;;;2.97;;
32216;SDS011;18709;51.140;4.088;2022-09-01T04:13:06;8.02;;;2.38;;
32216;SDS011;18709;51.140;4.088;2022-09-01T04:15:36;4.35;;;2.00;;
32216;SDS011;18709;51.140;4.088;2022-09-01T04:18:02;4.60;;;2.60;;
32216;SDS011;18709;51.140;4.088;2022-09-01T04:20:36;6.00;;;2.88;;
32216;SDS011;18709;51.140;4.088;2022-09-01T04:23:26;4.57;;;2.22;;
32216;SDS011;18709;51.140;4.088;2022-09-01T04:28:35;13.10;;;2.53;;
32216;SDS011;18709;51.140;4.088;2022-09-01T04:31:04;4.47;;;2.65;;
32216;SDS011;18709;51.140;4.088;2022-09-01T04:33:34;5.50;;;2.63;;
32216;SDS011;18709;51.140;4.088;2022-09-01T04:36:13;5.40;;;2.55;;
32216;SDS011;18709;51.140;4.088;2022-09-01T04:38:47;8.90;;;2.65;;
32216;SDS011;18709;51.140;4.088;2022-09-01T04:41:14;6.10;;;2.75;;
32216;SDS011;18709;51.140;4.088;2022-09-01T04:43:45;6.65;;;2.80;;
32216;SDS011;18709;51.140;4.088;2022-09-01T04:46:12;10.13;;;3.45;;
32216;SDS011;18709;51.140;4.088;2022-09-01T04:48:39;7.25;;;2.75;;
32216;SDS011;18709;51.140;4.088;2022-09-01T04:51:09;8.02;;;2.70;;
32216;SDS011;18709;51.140;4.088;2022-09-01T04:53:39;6.18;;;2.80;;
32216;SDS011;18709;51.140;4.088;2022-09-01T04:56:07;10.63;;;2.92;;
32216;SDS011;18709;51.140;4.088;2022-09-01T04:58:36;5.90;;;3.08;;
32216;SDS011;18709;51.140;4.088;2022-09-01T05:01:12;6.72;;;3.03;;
32216;SDS011;18709;51.140;4.088;2022-09-01T05:03:42;7.97;;;2.78;;
32216;SDS011;18709;51.140;4.088;2022-09-01T05:06:15;10.98;;;3.47;;
32216;SDS011;18709;51.140;4.088;2022-09-01T05:08:43;5.10;;;2.88;;
32216;SDS011;18709;51.140;4.088;2022-09-01T05:11:12;8.45;;;3.10;;
32216;SDS011;18709;51.140;4.088;2022-09-01T05:13:42;8.23;;;3.15;;
32216;SDS011;18709;51.140;4.088;2022-09-01T05:16:10;7.85;;;3.03;;
32216;SDS011;18709;51.140;4.088;2022-09-01T05:18:39;8.57;;;2.85;;
32216;SDS011;18709;51.140;4.088;2022-09-01T05:21:12;8.00;;;3.30;;
32216;SDS011;18709;51.140;4.088;2022-09-01T05:23:40;7.10;;;2.70;;
32216;SDS011;18709;51.140;4.088;2022-09-01T05:26:17;8.05;;;3.17;;
32216;SDS011;18709;51.140;4.088;2022-09-01T05:28:49;10.32;;;3.20;;
32216;SDS011;18709;51.140;4.088;2022-09-01T05:31:18;11.27;;;3.13;;
32216;SDS011;18709;51.140;4.088;2022-09-01T05:33:45;8.75;;;3.53;;
32216;SDS011;18709;51.140;4.088;2022-09-01T05:36:14;5.80;;;3.00;;
32216;SDS011;18709;51.140;4.088;2022-09-01T05:38:42;8.32;;;3.50;;
32216;SDS011;18709;51.140;4.088;2022-09-01T05:41:09;10.32;;;3.58;;
32216;SDS011;18709;51.140;4.088;2022-09-01T05:43:39;8.73;;;3.00;;
32216;SDS011;18709;51.140;4.088;2022-09-01T05:46:13;14.77;;;3.72;;
32216;SDS011;18709;51.140;4.088;2022-09-01T05:48:45;8.05;;;3.17;;
32216;SDS011;18709;51.140;4.088;2022-09-01T05:51:13;10.93;;;3.30;;
32216;SDS011;18709;51.140;4.088;2022-09-01T05:53:44;15.27;;;4.13;;
32216;SDS011;18709;51.140;4.088;2022-09-01T05:56:11;17.35;;;3.58;;
32216;SDS011;18709;51.140;4.088;2022-09-01T05:58:37;8.02;;;3.88;;
32216;SDS011;18709;51.140;4.088;2022-09-01T06:01:04;8.85;;;4.60;;
32216;SDS011;18709;51.140;4.088;2022-09-01T06:03:30;18.48;;;4.00;;
32216;SDS011;18709;51.140;4.088;2022-09-01T06:06:01;9.40;;;3.72;;
32216;SDS011;18709;51.140;4.088;2022-09-01T06:08:33;8.20;;;4.18;;
32216;SDS011;18709;51.140;4.088;2022-09-01T06:11:00;10.77;;;4.68;;
32216;SDS011;18709;51.140;4.088;2022-09-01T06:13:28;13.32;;;4.15;;
32216;SDS011;18709;51.140;4.088;2022-09-01T06:15:53;19.15;;;4.28;;
32216;SDS011;18709;51.140;4.088;2022-09-01T06:18:22;21.02;;;5.10;;
32216;SDS011;18709;51.140;4.088;2022-09-01T06:20:48;15.07;;;5.40;;
32216;SDS011;18709;51.140;4.088;2022-09-01T06:23:14;12.25;;;5.10;;
32216;SDS011;18709;51.140;4.088;2022-09-01T06:25:42;16.80;;;4.72;;
32216;SDS011;18709;51.140;4.088;2022-09-01T06:28:14;14.30;;;4.78;;
32216;SDS011;18709;51.140;4.088;2022-09-01T06:30:41;14.05;;;5.05;;
32216;SDS011;18709;51.140;4.088;2022-09-01T06:33:10;11.23;;;5.18;;
32216;SDS011;18709;51.140;4.088;2022-09-01T06:35:38;11.63;;;4.93;;
32216;SDS011;18709;51.140;4.088;2022-09-01T06:38:07;11.45;;;4.97;;
32216;SDS011;18709;51.140;4.088;2022-09-01T06:40:34;19.05;;;5.43;;
32216;SDS011;18709;51.140;4.088;2022-09-01T06:43:00;18.75;;;5.15;;
32216;SDS011;18709;51.140;4.088;2022-09-01T06:45:32;12.32;;;5.30;;
32216;SDS011;18709;51.140;4.088;2022-09-01T06:48:08;15.25;;;5.70;;
32216;SDS011;18709;51.140;4.088;2022-09-01T06:50:40;14.90;;;5.70;;
32216;SDS011;18709;51.140;4.088;2022-09-01T06:53:06;10.63;;;5.35;;
32216;SDS011;18709;51.140;4.088;2022-09-01T06:55:36;11.98;;;6.07;;
32216;SDS011;18709;51.140;4.088;2022-09-01T06:58:06;9.23;;;5.00;;
32216;SDS011;18709;51.140;4.088;2022-09-01T07:03:03;18.42;;;6.18;;
32216;SDS011;18709;51.140;4.088;2022-09-01T07:05:34;15.32;;;6.55;;
32216;SDS011;18709;51.140;4.088;2022-09-01T07:08:03;8.75;;;5.57;;
32216;SDS011;18709;51.140;4.088;2022-09-01T07:10:38;13.05;;;5.80;;
32216;SDS011;18709;51.140;4.088;2022-09-01T07:13:05;12.85;;;6.10;;
32216;SDS011;18709;51.140;4.088;2022-09-01T07:15:36;15.88;;;6.13;;
32216;SDS011;18709;51.140;4.088;2022-09-01T07:18:06;16.30;;;5.50;;
32216;SDS011;18709;51.140;4.088;2022-09-01T07:20:31;12.07;;;6.35;;
32216;SDS011;18709;51.140;4.088;2022-09-01T07:23:02;13.95;;;5.68;;
32216;SDS011;18709;51.140;4.088;2022-09-01T07:25:28;9.85;;;5.68;;
32216;SDS011;18709;51.140;4.088;2022-09-01T07:27:55;19.70;;;5.60;;
32216;SDS011;18709;51.140;4.088;2022-09-01T07:30:23;11.18;;;5.82;;
32216;SDS011;18709;51.140;4.088;2022-09-01T07:32:49;18.17;;;5.55;;
32216;SDS011;18709;51.140;4.088;2022-09-01T07:35:16;11.10;;;5.00;;
32216;SDS011;18709;51.140;4.088;2022-09-01T07:37:45;14.00;;;5.88;;
32216;SDS011;18709;51.140;4.088;2022-09-01T07:40:13;14.32;;;5.78;;
32216;SDS011;18709;51.140;4.088;2022-09-01T07:42:42;15.27;;;5.20;;
32216;SDS011;18709;51.140;4.088;2022-09-01T07:45:09;10.27;;;5.35;;
32216;SDS011;18709;51.140;4.088;2022-09-01T07:47:36;11.13;;;5.70;;
32216;SDS011;18709;51.140;4.088;2022-09-01T07:50:06;14.85;;;5.57;;
32216;SDS011;18709;51.140;4.088;2022-09-01T07:52:37;9.20;;;5.22;;
32216;SDS011;18709;51.140;4.088;2022-09-01T07:57:37;12.37;;;4.97;;
32216;SDS011;18709;51.140;4.088;2022-09-01T08:00:06;12.48;;;5.88;;
32216;SDS011;18709;51.140;4.088;2022-09-01T08:02:34;15.25;;;5.35;;
32216;SDS011;18709;51.140;4.088;2022-09-01T08:05:04;9.18;;;5.78;;
32216;SDS011;18709;51.140;4.088;2022-09-01T08:07:34;12.60;;;5.18;;
32216;SDS011;18709;51.140;4.088;2022-09-01T08:10:00;16.63;;;5.55;;
32216;SDS011;18709;51.140;4.088;2022-09-01T08:12:27;18.48;;;5.93;;
32216;SDS011;18709;51.140;4.088;2022-09-01T08:14:53;19.27;;;5.93;;
32216;SDS011;18709;51.140;4.088;2022-09-01T08:17:19;19.17;;;5.93;;
32216;SDS011;18709;51.140;4.088;2022-09-01T08:19:45;11.57;;;5.53;;
32216;SDS011;18709;51.140;4.088;2022-09-01T08:22:11;9.82;;;5.05;;
32216;SDS011;18709;51.140;4.088;2022-09-01T08:24:38;12.88;;;5.35;;
32216;SDS011;18709;51.140;4.088;2022-09-01T08:27:04;9.02;;;5.45;;
32216;SDS011;18709;51.140;4.088;2022-09-01T08:29:30;14.50;;;5.70;;
32216;SDS011;18709;51.140;4.088;2022-09-01T08:31:56;13.05;;;6.68;;
32216;SDS011;18709;51.140;4.088;2022-09-01T08:34:23;12.45;;;5.53;;
32216;SDS011;18709;51.140;4.088;2022-09-01T08:36:50;11.70;;;5.78;;
32216;SDS011;18709;51.140;4.088;2022-09-01T08:39:16;9.63;;;5.00;;
32216;SDS011;18709;51.140;4.088;2022-09-01T08:41:54;14.50;;;5.28;;
32216;SDS011;18709;51.140;4.088;2022-09-01T08:44:32;11.90;;;4.60;;
32216;SDS011;18709;51.140;4.088;2022-09-01T08:47:11;11.20;;;5.20;;
32216;SDS011;18709;51.140;4.088;2022-09-01T08:49:39;16.20;;;5.65;;
32216;SDS011;18709;51.140;4.088;2022-09-01T08:54:55;10.10;;;5.20;;
32216;SDS011;18709;51.140;4.088;2022-09-01T08:57:37;13.57;;;4.95;;
32216;SDS011;18709;51.140;4.088;2022-09-01T09:00:05;13.05;;;4.82;;
32216;SDS011;18709;51.140;4.088;2022-09-01T09:16:45;11.90;;;4.82;;
32216;SDS011;18709;51.140;4.088;2022-09-01T09:19:14;9.32;;;4.70;;
32216;SDS011;18709;51.140;4.088;2022-09-01T09:21:42;9.88;;;4.15;;
32216;SDS011;18709;51.140;4.088;2022-09-01T09:24:12;6.35;;;3.03;;
32216;SDS011;18709;51.140;4.088;2022-09-01T09:26:49;6.25;;;3.38;;
32216;SDS011;18709;51.140;4.088;2022-09-01T09:29:16;8.25;;;3.45;;
32216;SDS011;18709;51.140;4.088;2022-09-01T09:31:42;8.60;;;3.60;;
32216;SDS011;18709;51.140;4.088;2022-09-01T09:43:05;9.48;;;3.95;;
32216;SDS011;18709;51.140;4.088;2022-09-01T09:45:32;7.93;;;4.28;;
32216;SDS011;18709;51.140;4.088;2022-09-01T09:48:03;6.97;;;3.85;;
32216;SDS011;18709;51.140;4.088;2022-09-01T09:50:36;7.63;;;4.55;;
32216;SDS011;18709;51.140;4.088;2022-09-01T09:53:17;9.85;;;4.18;;
32216;SDS011;18709;51.140;4.088;2022-09-01T09:58:41;8.75;;;5.00;;
32216;SDS011;18709;51.140;4.088;2022-09-01T10:03:51;10.50;;;5.25;;
32216;SDS011;18709;51.140;4.088;2022-09-01T10:09:07;10.98;;;4.13;;
32216;SDS011;18709;51.140;4.088;2022-09-01T10:11:39;14.77;;;4.15;;
32216;SDS011;18709;51.140;4.088;2022-09-01T10:14:15;8.93;;;4.18;;
32216;SDS011;18709;51.140;4.088;2022-09-01T10:16:44;7.75;;;3.70;;
32216;SDS011;18709;51.140;4.088;2022-09-01T10:19:15;6.97;;;3.55;;
32216;SDS011;18709;51.140;4.088;2022-09-01T10:21:41;14.65;;;4.50;;
32216;SDS011;18709;51.140;4.088;2022-09-01T10:26:49;6.72;;;3.00;;
32216;SDS011;18709;51.140;4.088;2022-09-01T10:29:21;7.03;;;2.50;;
32216;SDS011;18709;51.140;4.088;2022-09-01T10:31:56;8.20;;;2.35;;
32216;SDS011;18709;51.140;4.088;2022-09-01T10:34:25;4.85;;;2.40;;
32216;SDS011;18709;51.140;4.088;2022-09-01T10:36:56;5.93;;;2.60;;
32216;SDS011;18709;51.140;4.088;2022-09-01T10:39:23;5.55;;;2.38;;
32216;SDS011;18709;51.140;4.088;2022-09-01T10:41:55;3.40;;;2.08;;
32216;SDS011;18709;51.140;4.088;2022-09-01T10:44:29;10.50;;;2.17;;
32216;SDS011;18709;51.140;4.088;2022-09-01T10:47:28;6.40;;;2.30;;
32216;SDS011;18709;51.140;4.088;2022-09-01T10:50:04;2.97;;;1.83;;
32216;SDS011;18709;51.140;4.088;2022-09-01T10:53:03;3.97;;;1.83;;
32216;SDS011;18709;51.140;4.088;2022-09-01T10:55:31;7.13;;;2.08;;
32216;SDS011;18709;51.140;4.088;2022-09-01T11:01:00;5.35;;;2.08;;
32216;SDS011;18709;51.140;4.088;2022-09-01T11:13:46;8.80;;;1.88;;
32216;SDS011;18709;51.140;4.088;2022-09-01T11:19:15;3.92;;;1.27;;
32216;SDS011;18709;51.140;4.088;2022-09-01T11:22:09;2.40;;;1.10;;
32216;SDS011;18709;51.140;4.088;2022-09-01T11:24:47;5.10;;;1.58;;
32216;SDS011;18709;51.140;4.088;2022-09-01T11:30:19;4.25;;;1.48;;
32216;SDS011;18709;51.140;4.088;2022-09-01T11:32:46;2.88;;;1.38;;
32216;SDS011;18709;51.140;4.088;2022-09-01T11:35:22;4.88;;;1.40;;
32216;SDS011;18709;51.140;4.088;2022-09-01T11:37:51;2.47;;;1.35;;
32216;SDS011;18709;51.140;4.088;2022-09-01T11:40:23;6.70;;;1.50;;
32216;SDS011;18709;51.140;4.088;2022-09-01T11:42:51;5.22;;;1.83;;
32216;SDS011;18709;51.140;4.088;2022-09-01T11:45:25;3.50;;;1.30;;
32216;SDS011;18709;51.140;4.088;2022-09-01T11:47:59;4.72;;;1.67;;
32216;SDS011;18709;51.140;4.088;2022-09-01T11:50:32;3.17;;;1.67;;
32216;SDS011;18709;51.140;4.088;2022-09-01T11:53:20;3.13;;;1.58;;
32216;SDS011;18709;51.140;4.088;2022-09-01T11:55:49;3.50;;;1.70;;
32216;SDS011;18709;51.140;4.088;2022-09-01T12:00:55;3.90;;;1.52;;
32216;SDS011;18709;51.140;4.088;2022-09-01T12:03:36;2.45;;;1.38;;
32216;SDS011;18709;51.140;4.088;2022-09-01T12:06:03;3.33;;;1.77;;
32216;SDS011;18709;51.140;4.088;2022-09-01T12:08:31;4.13;;;1.52;;
32216;SDS011;18709;51.140;4.088;2022-09-01T12:11:02;6.28;;;1.50;;
32216;SDS011;18709;51.140;4.088;2022-09-01T12:13:29;5.20;;;1.45;;
32216;SDS011;18709;51.140;4.088;2022-09-01T12:15:56;5.75;;;1.42;;
32216;SDS011;18709;51.140;4.088;2022-09-01T12:18:32;7.40;;;1.50;;
32216;SDS011;18709;51.140;4.088;2022-09-01T12:21:00;4.28;;;1.40;;
32216;SDS011;18709;51.140;4.088;2022-09-01T12:25:56;2.90;;;1.40;;
32216;SDS011;18709;51.140;4.088;2022-09-01T12:28:25;1.42;;;1.17;;
32216;SDS011;18709;51.140;4.088;2022-09-01T12:30:57;2.08;;;1.60;;
32216;SDS011;18709;51.140;4.088;2022-09-01T12:33:25;2.78;;;1.40;;
32216;SDS011;18709;51.140;4.088;2022-09-01T12:36:11;2.22;;;1.52;;
32216;SDS011;18709;51.140;4.088;2022-09-01T12:38:50;3.85;;;1.63;;
32216;SDS011;18709;51.140;4.088;2022-09-01T12:41:38;5.50;;;1.38;;
32216;SDS011;18709;51.140;4.088;2022-09-01T12:45:05;3.80;;;1.63;;
32216;SDS011;18709;51.140;4.088;2022-09-01T12:47:08;2.50;;;1.90;;
32216;SDS011;18709;51.140;4.088;2022-09-01T12:49:41;7.90;;;1.60;;
32216;SDS011;18709;51.140;4.088;2022-09-01T12:54:43;5.53;;;1.85;;
32216;SDS011;18709;51.140;4.088;2022-09-01T12:57:11;5.38;;;1.60;;
32216;SDS011;18709;51.140;4.088;2022-09-01T13:00:13;12.65;;;2.15;;
32216;SDS011;18709;51.140;4.088;2022-09-01T13:02:41;2.25;;;1.50;;
32216;SDS011;18709;51.140;4.088;2022-09-01T13:07:51;2.85;;;1.40;;
32216;SDS011;18709;51.140;4.088;2022-09-01T13:10:19;3.33;;;1.73;;
32216;SDS011;18709;51.140;4.088;2022-09-01T13:12:46;4.65;;;1.70;;
32216;SDS011;18709;51.140;4.088;2022-09-01T13:15:12;4.47;;;1.83;;
32216;SDS011;18709;51.140;4.088;2022-09-01T13:17:38;2.10;;;1.70;;
32216;SDS011;18709;51.140;4.088;2022-09-01T13:20:06;7.10;;;2.05;;
32216;SDS011;18709;51.140;4.088;2022-09-01T13:22:33;4.90;;;1.77;;
32216;SDS011;18709;51.140;4.088;2022-09-01T13:24:59;3.42;;;1.55;;
32216;SDS011;18709;51.140;4.088;2022-09-01T13:27:25;4.10;;;1.75;;
32216;SDS011;18709;51.140;4.088;2022-09-01T13:29:51;4.93;;;1.90;;
32216;SDS011;18709;51.140;4.088;2022-09-01T13:32:18;3.75;;;2.30;;
32216;SDS011;18709;51.140;4.088;2022-09-01T13:34:46;4.28;;;1.65;;
32216;SDS011;18709;51.140;4.088;2022-09-01T13:37:12;6.20;;;2.30;;
32216;SDS011;18709;51.140;4.088;2022-09-01T13:39:38;4.30;;;1.58;;
32216;SDS011;18709;51.140;4.088;2022-09-01T13:42:04;4.85;;;1.58;;
32216;SDS011;18709;51.140;4.088;2022-09-01T13:44:30;3.47;;;1.75;;
32216;SDS011;18709;51.140;4.088;2022-09-01T13:46:55;9.75;;;2.00;;
32216;SDS011;18709;51.140;4.088;2022-09-01T13:49:22;4.75;;;1.98;;
32216;SDS011;18709;51.140;4.088;2022-09-01T13:51:51;4.72;;;1.90;;
32216;SDS011;18709;51.140;4.088;2022-09-01T13:54:18;2.63;;;1.95;;
32216;SDS011;18709;51.140;4.088;2022-09-01T13:56:44;3.03;;;1.80;;
32216;SDS011;18709;51.140;4.088;2022-09-01T13:59:10;3.17;;;2.28;;
32216;SDS011;18709;51.140;4.088;2022-09-01T14:01:36;5.97;;;1.92;;
32216;SDS011;18709;51.140;4.088;2022-09-01T14:04:03;5.97;;;1.90;;
32216;SDS011;18709;51.140;4.088;2022-09-01T14:06:30;9.68;;;1.80;;
32216;SDS011;18709;51.140;4.088;2022-09-01T14:08:56;4.03;;;1.90;;
32216;SDS011;18709;51.140;4.088;2022-09-01T14:11:23;4.00;;;2.05;;
32216;SDS011;18709;51.140;4.088;2022-09-01T14:13:51;4.20;;;1.63;;
32216;SDS011;18709;51.140;4.088;2022-09-01T14:16:16;6.13;;;1.90;;
32216;SDS011;18709;51.140;4.088;2022-09-01T14:18:42;4.15;;;1.65;;
32216;SDS011;18709;51.140;4.088;2022-09-01T14:21:12;2.85;;;1.75;;
32216;SDS011;18709;51.140;4.088;2022-09-01T14:23:39;2.28;;;1.42;;
32216;SDS011;18709;51.140;4.088;2022-09-01T14:26:09;3.00;;;1.90;;
32216;SDS011;18709;51.140;4.088;2022-09-01T14:28:37;5.63;;;1.80;;
32216;SDS011;18709;51.140;4.088;2022-09-01T14:31:11;5.20;;;1.52;;
32216;SDS011;18709;51.140;4.088;2022-09-01T14:33:38;6.22;;;1.90;;
32216;SDS011;18709;51.140;4.088;2022-09-01T14:36:06;4.25;;;1.38;;
32216;SDS011;18709;51.140;4.088;2022-09-01T14:38:33;5.05;;;1.67;;
32216;SDS011;18709;51.140;4.088;2022-09-01T14:40:59;7.75;;;1.77;;
32216;SDS011;18709;51.140;4.088;2022-09-01T14:43:26;4.82;;;1.60;;
32216;SDS011;18709;51.140;4.088;2022-09-01T14:46:02;3.30;;;1.58;;
32216;SDS011;18709;51.140;4.088;2022-09-01T14:48:34;6.50;;;1.40;;
32216;SDS011;18709;51.140;4.088;2022-09-01T14:51:02;3.30;;;1.50;;
32216;SDS011;18709;51.140;4.088;2022-09-01T14:53:28;6.75;;;1.85;;
32216;SDS011;18709;51.140;4.088;2022-09-01T14:55:58;6.60;;;1.83;;
32216;SDS011;18709;51.140;4.088;2022-09-01T14:58:25;3.97;;;1.70;;
32216;SDS011;18709;51.140;4.088;2022-09-01T15:00:53;6.07;;;1.83;;
32216;SDS011;18709;51.140;4.088;2022-09-01T15:03:20;4.40;;;1.60;;
32216;SDS011;18709;51.140;4.088;2022-09-01T15:05:47;2.53;;;1.63;;
32216;SDS011;18709;51.140;4.088;2022-09-01T15:08:14;3.63;;;1.50;;
32216;SDS011;18709;51.140;4.088;2022-09-01T15:10:40;3.22;;;1.70;;
32216;SDS011;18709;51.140;4.088;2022-09-01T15:13:05;4.72;;;1.55;;
32216;SDS011;18709;51.140;4.088;2022-09-01T15:15:31;4.65;;;1.67;;
32216;SDS011;18709;51.140;4.088;2022-09-01T15:17:58;4.30;;;1.67;;
32216;SDS011;18709;51.140;4.088;2022-09-01T15:20:24;7.00;;;1.80;;
32216;SDS011;18709;51.140;4.088;2022-09-01T15:23:09;3.75;;;1.60;;
32216;SDS011;18709;51.140;4.088;2022-09-01T15:25:36;2.55;;;1.67;;
32216;SDS011;18709;51.140;4.088;2022-09-01T15:28:03;2.28;;;1.65;;
32216;SDS011;18709;51.140;4.088;2022-09-01T15:30:29;5.57;;;2.10;;
32216;SDS011;18709;51.140;4.088;2022-09-01T15:32:55;4.43;;;1.60;;
32216;SDS011;18709;51.140;4.088;2022-09-01T15:35:21;5.53;;;1.70;;
32216;SDS011;18709;51.140;4.088;2022-09-01T15:37:47;3.75;;;1.42;;
32216;SDS011;18709;51.140;4.088;2022-09-01T15:40:13;3.78;;;1.40;;
32216;SDS011;18709;51.140;4.088;2022-09-01T15:42:39;1.90;;;1.48;;
32216;SDS011;18709;51.140;4.088;2022-09-01T15:45:07;1.67;;;1.27;;
32216;SDS011;18709;51.140;4.088;2022-09-01T15:47:35;2.65;;;1.23;;
32216;SDS011;18709;51.140;4.088;2022-09-01T15:50:05;3.17;;;1.52;;
32216;SDS011;18709;51.140;4.088;2022-09-01T15:52:32;9.13;;;1.95;;
32216;SDS011;18709;51.140;4.088;2022-09-01T15:54:58;8.32;;;1.50;;
32216;SDS011;18709;51.140;4.088;2022-09-01T15:57:24;2.95;;;1.52;;
32216;SDS011;18709;51.140;4.088;2022-09-01T15:59:51;2.65;;;1.42;;
32216;SDS011;18709;51.140;4.088;2022-09-01T16:02:17;4.10;;;1.50;;
32216;SDS011;18709;51.140;4.088;2022-09-01T16:04:47;4.30;;;1.30;;
32216;SDS011;18709;51.140;4.088;2022-09-01T16:07:13;3.63;;;1.30;;
32216;SDS011;18709;51.140;4.088;2022-09-01T16:09:39;4.65;;;1.50;;
32216;SDS011;18709;51.140;4.088;2022-09-01T16:12:04;3.85;;;1.27;;
32216;SDS011;18709;51.140;4.088;2022-09-01T16:14:31;1.95;;;1.20;;
32216;SDS011;18709;51.140;4.088;2022-09-01T16:24:45;3.05;;;1.42;;
32216;SDS011;18709;51.140;4.088;2022-09-01T16:27:16;2.53;;;1.40;;
32216;SDS011;18709;51.140;4.088;2022-09-01T16:29:45;4.47;;;1.50;;